Terminal Aerodrome Forecast
Issued by NWS

Home | Current Version | Previous Version | Text Only | Print | Product List | Glossary On
Versions: 1 2 3 4 5 6 7 8 9 10 11 12
000
FTUS43 KOAX 302338
TAFBFF
TAF
KBFF 302338Z 3100/3124 04008KT P6SM SKC
     FM310300 09009KT P6SM SKC
     FM311000 10011KT P6SM OVC005
     FM311700 15013KT P6SM BKN010
     FM311900 14017G23KT P6SM SKC=

USA.gov is the U.S. government's official web portal to all federal, state and local government web resources and services.